Aérodrome :
LOGIN :

S'inscrire | Disclaimer

   EN    FR    IT 

 










Légende :    VFR   VFR Marginal   IFR   IFR Intensif   IFR Très Intensif
Visi : 
Plafond : 
>= 8 km
>= 3000ft
5 à 8 km
1000 à 3000 ft
1500m à 5 km
500 à 1000 ft
800 à 1500m
200 à 500 ft
< 800m
< 200 ft
Symboles :   Orages  Brouillard  Fortes neiges  Fortes précipitations  Vent > 20 kt
SIGMETs :   Divers  Orages  Givrage  Turbulence  Onde Orograph.  Cendres Volcan.






- Altitude de l'aérodrome : 794 ft


LKCV - Čáslav Air Base

DERNIER METAR :
  • 060700Z 32003KT CAVOK 17/13 Q1022 NOSIG RMK BLU BLU

METARs EXPIRÉS :
  • 060630Z VRB01KT CAVOK 17/12 Q1022 NOSIG RMK BLU BLU
  • 060600Z 00000KT CAVOK 16/12 Q1022 NOSIG RMK BLU BLU
  • 060530Z 00000KT CAVOK 15/12 Q1021 NOSIG RMK BLU BLU
  • 060500Z VRB01KT CAVOK 13/11 Q1021 NOSIG RMK BLU BLU
  • 060430Z 27002KT CAVOK 12/11 Q1021 NOSIG RMK BLU BLU

TAF TAF LKCV
Valide du 06 à 06h jusqu'au 07 à 06h UTC


060500Z 0606/0706 VRB02KT CAVOK
BECMG 0608/0610 04006KT
BECMG 0619/0621 VRB02KT
PROB30
TEMPO 0702/0706 4000 BR



MET'MAP, la Météo Aéronautique d'un coup d'oeil ! - Copyright ORBIFLY Décembre 2007 - Disclaimer

ORBIFLY MET'MAP TEAM :

Programmation & Développement : Alexandra Zaïnal
Sur une idée originale de : Baudouin d'Aumeries
Assistance à la programmation : Marc-Olivier Méhu
Soutien technique & logistique : Manuel Goepfert

Contact : metmap@orbifly.com




SOURCES & CREDITS :

   NOAA